createdAt,value
2018-08-20T00:01:03.495Z,77.11
2018-08-20T00:02:10.001Z,77.21
2018-08-20T00:03:14.536Z,77.21
2018-08-20T00:04:20.014Z,77.21
2018-08-20T00:05:26.541Z,77.59
2018-08-20T00:06:31.064Z,77.40
2018-08-20T00:07:37.562Z,77.11
2018-08-20T00:08:42.087Z,77.21
2018-08-20T00:09:47.594Z,76.92
2018-08-20T00:10:54.146Z,77.11
2018-08-20T00:11:58.652Z,77.50
2018-08-20T00:13:05.164Z,77.30
2018-08-20T00:14:09.685Z,77.40
2018-08-20T00:15:15.186Z,76.92
2018-08-20T00:16:21.709Z,76.63
2018-08-20T00:17:26.245Z,76.72
2018-08-20T00:18:32.750Z,77.11
2018-08-20T00:19:37.249Z,77.21
2018-08-20T00:20:42.790Z,77.69
2018-08-20T00:21:49.304Z,77.40
2018-08-20T00:22:53.826Z,77.50
2018-08-20T00:24:00.338Z,76.92
2018-08-20T00:25:04.859Z,77.01
2018-08-20T00:26:10.382Z,77.40
2018-08-20T00:27:16.907Z,76.63
2018-08-20T00:28:21.417Z,77.01
2018-08-20T00:29:27.939Z,77.21
2018-08-20T00:30:32.452Z,77.01
2018-08-20T00:31:37.980Z,77.21
2018-08-20T00:32:44.483Z,77.11
2018-08-20T00:33:49.000Z,77.30
2018-08-20T00:34:55.539Z,77.11
2018-08-20T00:36:00.040Z,76.63
2018-08-20T00:37:05.561Z,76.82
2018-08-20T00:38:12.072Z,76.47
2018-08-20T00:39:16.622Z,77.01
2018-08-20T00:40:23.127Z,77.25
2018-08-20T00:41:27.646Z,77.21
2018-08-20T00:42:33.161Z,77.11
2018-08-20T00:43:39.696Z,76.63
2018-08-20T00:44:44.179Z,77.01
2018-08-20T00:45:50.720Z,76.76
2018-08-20T00:46:55.237Z,77.11
2018-08-20T00:48:00.747Z,77.11
2018-08-20T00:49:07.258Z,76.72
2018-08-20T00:50:11.772Z,77.05
2018-08-20T00:51:18.292Z,76.09
2018-08-20T00:52:22.796Z,75.99
2018-08-20T00:53:28.343Z,76.05
2018-08-20T00:54:34.851Z,75.99
2018-08-20T00:55:39.350Z,75.79
2018-08-20T00:56:45.898Z,75.60
2018-08-20T00:57:50.394Z,76.47
2018-08-20T00:58:55.934Z,76.57
2018-08-20T01:00:02.437Z,76.57
2018-08-20T01:01:06.962Z,76.28
2018-08-20T01:02:13.516Z,76.47
2018-08-20T01:03:17.980Z,76.28
2018-08-20T01:04:23.531Z,76.37
2018-08-20T01:05:30.045Z,76.67
2018-08-20T01:06:34.534Z,77.15
2018-08-20T01:07:41.073Z,77.15
2018-08-20T01:08:45.567Z,77.05
2018-08-20T01:09:51.097Z,76.76
2018-08-20T01:10:57.619Z,77.15
2018-08-20T01:12:02.138Z,77.15
2018-08-20T01:13:08.648Z,77.34
2018-08-20T01:14:13.162Z,77.15
2018-08-20T01:15:19.220Z,77.25
2018-08-20T01:16:25.213Z,77.15
2018-08-20T01:17:29.715Z,77.15
2018-08-20T01:18:36.257Z,76.76
2018-08-20T01:19:40.748Z,77.34
2018-08-20T01:20:46.290Z,76.95
2018-08-20T01:21:52.811Z,77.53
2018-08-20T01:22:57.334Z,77.25
2018-08-20T01:24:03.850Z,77.44
2018-08-20T01:25:08.354Z,77.53
2018-08-20T01:26:13.887Z,77.53
2018-08-20T01:27:20.418Z,77.25
2018-08-20T01:28:24.907Z,77.34
2018-08-20T01:29:31.454Z,77.34
2018-08-20T01:30:35.945Z,78.02
2018-08-20T01:31:41.452Z,77.63
2018-08-20T01:32:47.987Z,77.73
2018-08-20T01:33:52.499Z,77.15
2018-08-20T01:34:59.024Z,77.34
2018-08-20T01:36:03.532Z,77.53
2018-08-20T01:37:09.054Z,78.11
2018-08-20T01:38:15.566Z,78.11
2018-08-20T01:39:20.070Z,77.63
2018-08-20T01:40:26.613Z,78.31
2018-08-20T01:41:31.120Z,77.73
2018-08-20T01:42:36.646Z,78.02
2018-08-20T01:43:43.184Z,78.11
2018-08-20T01:44:47.682Z,78.41
2018-08-20T01:45:54.215Z,78.41
2018-08-20T01:46:58.714Z,78.11
2018-08-20T01:48:04.212Z,78.02
2018-08-20T01:49:10.732Z,77.92
2018-08-20T01:50:15.267Z,78.11
2018-08-20T01:51:21.810Z,78.02
2018-08-20T01:52:26.309Z,77.53
2018-08-20T01:53:31.814Z,78.11
2018-08-20T01:54:38.350Z,78.21
2018-08-20T01:55:42.870Z,78.11
2018-08-20T01:56:49.391Z,78.50
2018-08-20T01:57:53.897Z,78.31
2018-08-20T01:58:59.418Z,78.59
2018-08-20T02:00:05.930Z,78.50
2018-08-20T02:01:10.449Z,78.69
2018-08-20T02:02:16.970Z,78.50
2018-08-20T02:03:21.474Z,78.21
2018-08-20T02:04:27.005Z,78.31
2018-08-20T02:05:33.529Z,78.59
2018-08-20T02:06:38.051Z,78.50
2018-08-20T02:07:44.567Z,78.50
2018-08-20T02:08:49.063Z,78.50
2018-08-20T02:09:54.600Z,78.41
2018-08-20T02:11:01.130Z,78.21
2018-08-20T02:12:05.628Z,78.27
2018-08-20T02:13:12.137Z,78.50
2018-08-20T02:14:16.681Z,78.21
2018-08-20T02:15:22.167Z,78.17
2018-08-20T02:16:28.709Z,78.66
2018-08-20T02:17:33.231Z,78.27
2018-08-20T02:18:39.745Z,78.36
2018-08-20T02:19:44.249Z,78.46
2018-08-20T02:20:49.767Z,78.41
2018-08-20T02:21:56.305Z,78.56
2018-08-20T02:23:00.809Z,78.36
2018-08-20T02:24:07.327Z,78.66
2018-08-20T02:25:11.848Z,78.75
2018-08-20T02:26:17.363Z,78.75
2018-08-20T02:27:23.896Z,78.46
2018-08-20T02:28:28.417Z,78.50
2018-08-20T02:29:34.904Z,78.59
2018-08-20T02:30:39.437Z,78.94
2018-08-20T02:31:44.932Z,78.75
2018-08-20T02:32:51.491Z,79.27
2018-08-20T02:33:55.975Z,78.94
2018-08-20T02:35:02.511Z,79.04
2018-08-20T02:36:07.014Z,79.04
2018-08-20T02:37:12.550Z,79.24
2018-08-20T02:38:19.067Z,79.33
2018-08-20T02:39:23.604Z,79.14
2018-08-20T02:40:30.102Z,79.24
2018-08-20T02:41:34.606Z,79.24
2018-08-20T02:42:40.131Z,78.94
2018-08-20T02:43:46.657Z,79.04
2018-08-20T02:44:51.177Z,79.24
2018-08-20T02:45:57.697Z,78.94
2018-08-20T02:47:02.200Z,79.04
2018-08-20T02:48:07.727Z,78.94
2018-08-20T02:49:14.257Z,79.04
2018-08-20T02:50:18.759Z,79.52
2018-08-20T02:51:25.297Z,79.52
2018-08-20T02:52:29.806Z,79.91
2018-08-20T02:53:35.302Z,79.52
2018-08-20T02:54:41.842Z,79.62
2018-08-20T02:55:46.353Z,79.72
2018-08-20T02:56:52.864Z,79.52
2018-08-20T02:57:57.376Z,79.81
2018-08-20T02:59:02.915Z,80.20
2018-08-20T03:00:09.434Z,79.62
2018-08-20T03:01:13.961Z,79.62
2018-08-20T03:02:20.471Z,79.72
2018-08-20T03:03:24.966Z,79.72
2018-08-20T03:04:30.506Z,80.00
2018-08-20T03:05:37.015Z,79.81
2018-08-20T03:06:41.523Z,79.91
2018-08-20T03:07:48.050Z,79.72
2018-08-20T03:08:52.570Z,79.62
2018-08-20T03:09:58.097Z,79.91
2018-08-20T03:11:04.616Z,80.10
2018-08-20T03:12:09.116Z,79.62
2018-08-20T03:13:15.635Z,79.72
2018-08-20T03:14:20.168Z,79.72
2018-08-20T03:15:25.671Z,79.62
2018-08-20T03:16:32.258Z,79.72
2018-08-20T03:17:36.714Z,79.91
2018-08-20T03:18:43.232Z,79.62
2018-08-20T03:19:47.747Z,79.43
2018-08-20T03:20:53.265Z,80.00
2018-08-20T03:21:59.817Z,79.62
2018-08-20T03:23:04.317Z,79.81
2018-08-20T03:24:10.839Z,79.62
2018-08-20T03:25:15.355Z,79.81
2018-08-20T03:26:20.880Z,79.43
2018-08-20T03:27:27.382Z,79.91
2018-08-20T03:28:31.885Z,79.72
2018-08-20T03:29:38.429Z,79.72
2018-08-20T03:30:42.919Z,80.20
2018-08-20T03:31:48.446Z,80.10
2018-08-20T03:32:54.967Z,80.20
2018-08-20T03:33:59.478Z,80.10
2018-08-20T03:35:06.013Z,79.62
2018-08-20T03:36:10.520Z,79.91
2018-08-20T03:37:16.060Z,79.72
2018-08-20T03:38:22.575Z,79.72
2018-08-20T03:39:27.075Z,79.62
2018-08-20T03:40:33.592Z,80.00
2018-08-20T03:41:38.124Z,79.52
2018-08-20T03:42:43.622Z,79.81
2018-08-20T03:43:50.148Z,79.72
2018-08-20T03:44:54.658Z,79.52
2018-08-20T03:46:01.172Z,79.81
2018-08-20T03:47:05.699Z,80.00
2018-08-20T03:48:11.254Z,80.39
2018-08-20T03:49:17.737Z,80.00
2018-08-20T03:50:22.237Z,79.77
2018-08-20T03:51:28.772Z,80.00
2018-08-20T03:52:33.278Z,79.58
2018-08-20T03:53:38.805Z,79.58
2018-08-20T03:54:45.332Z,79.58
2018-08-20T03:55:49.831Z,80.06
2018-08-20T03:56:56.360Z,79.68
2018-08-20T03:58:00.860Z,79.77
2018-08-20T03:59:06.461Z,79.87
2018-08-20T04:00:12.910Z,79.97
2018-08-20T04:01:17.424Z,79.68
2018-08-20T04:02:23.961Z,79.49
2018-08-20T04:03:28.449Z,79.58
2018-08-20T04:04:33.965Z,80.16
2018-08-20T04:05:40.499Z,79.97
2018-08-20T04:06:45.013Z,80.26
2018-08-20T04:07:51.538Z,79.97
2018-08-20T04:08:56.038Z,79.97
2018-08-20T04:10:01.566Z,80.16
2018-08-20T04:11:08.092Z,80.16
2018-08-20T04:12:12.623Z,79.97
2018-08-20T04:13:19.117Z,80.06
2018-08-20T04:14:23.652Z,79.87
2018-08-20T04:15:29.155Z,80.06
2018-08-20T04:16:35.685Z,80.16
2018-08-20T04:17:40.197Z,80.06
2018-08-20T04:18:46.718Z,79.77
2018-08-20T04:19:51.223Z,79.49
2018-08-20T04:20:56.752Z,80.26
2018-08-20T04:22:03.282Z,80.16
2018-08-20T04:23:07.775Z,80.06
2018-08-20T04:24:14.287Z,79.68
2018-08-20T04:25:18.811Z,79.97
2018-08-20T04:26:24.323Z,80.16
2018-08-20T04:27:30.862Z,80.16
2018-08-20T04:28:35.381Z,80.26
2018-08-20T04:29:41.878Z,79.68
2018-08-20T04:30:46.474Z,79.58
2018-08-20T04:31:51.921Z,80.26
2018-08-20T04:32:58.435Z,80.26
2018-08-20T04:34:02.964Z,80.54
2018-08-20T04:35:09.468Z,80.64
2018-08-20T04:36:14.007Z,80.54
2018-08-20T04:37:19.519Z,80.35
2018-08-20T04:38:26.034Z,80.16
2018-08-20T04:39:30.520Z,79.77
2018-08-20T04:40:37.072Z,80.26
2018-08-20T04:41:41.571Z,80.06
2018-08-20T04:42:47.097Z,80.35
2018-08-20T04:43:53.635Z,80.35
2018-08-20T04:44:58.138Z,80.54
2018-08-20T04:46:04.694Z,80.45
2018-08-20T04:47:09.175Z,80.26
2018-08-20T04:48:14.675Z,79.97
2018-08-20T04:49:21.215Z,80.06
2018-08-20T04:50:25.791Z,80.45
2018-08-20T04:51:32.338Z,80.35
2018-08-20T04:52:36.762Z,80.16
2018-08-20T04:53:42.266Z,80.83
2018-08-20T04:54:48.791Z,80.64
2018-08-20T04:55:53.312Z,80.45
2018-08-20T04:56:59.827Z,80.35
2018-08-20T04:58:04.338Z,80.64
2018-08-20T04:59:09.856Z,80.06
2018-08-20T05:00:16.389Z,80.83
2018-08-20T05:01:20.896Z,80.06
2018-08-20T05:02:27.433Z,80.74
2018-08-20T05:03:31.946Z,80.45
2018-08-20T05:04:37.480Z,81.02
2018-08-20T05:05:43.963Z,80.93
2018-08-20T05:06:48.480Z,80.93
2018-08-20T05:07:55.016Z,80.74
2018-08-20T05:08:59.583Z,81.32
2018-08-20T05:10:05.053Z,80.64
2018-08-20T05:11:11.579Z,80.64
2018-08-20T05:12:16.094Z,80.54
2018-08-20T05:13:22.587Z,80.45
2018-08-20T05:14:27.111Z,80.93
2018-08-20T05:15:32.639Z,80.93
2018-08-20T05:16:39.136Z,80.74
2018-08-20T05:17:43.664Z,81.22
2018-08-20T05:18:50.241Z,80.93
2018-08-20T05:19:54.703Z,81.02
2018-08-20T05:21:00.218Z,80.93
2018-08-20T05:22:06.763Z,81.12
2018-08-20T05:23:11.258Z,81.22
2018-08-20T05:24:17.792Z,81.32
2018-08-20T05:25:22.287Z,81.51
2018-08-20T05:26:27.803Z,81.12
2018-08-20T05:27:34.333Z,81.22
2018-08-20T05:28:38.832Z,81.51
2018-08-20T05:29:45.382Z,81.41
2018-08-20T05:30:49.894Z,81.90
2018-08-20T05:31:55.383Z,81.22
2018-08-20T05:33:01.933Z,81.32
2018-08-20T05:34:06.443Z,81.12
2018-08-20T05:35:12.949Z,81.41
2018-08-20T05:36:17.468Z,81.41
2018-08-20T05:37:22.990Z,80.83
2018-08-20T05:38:29.510Z,81.32
2018-08-20T05:39:34.027Z,81.60
2018-08-20T05:40:40.537Z,81.60
2018-08-20T05:41:45.052Z,81.12
2018-08-20T05:42:50.563Z,81.41
2018-08-20T05:43:57.107Z,81.22
2018-08-20T05:45:01.605Z,81.22
2018-08-20T05:46:08.124Z,81.51
2018-08-20T05:47:12.637Z,81.22
2018-08-20T05:48:18.176Z,81.22
2018-08-20T05:49:24.701Z,81.51
2018-08-20T05:50:29.193Z,81.22
2018-08-20T05:51:35.724Z,81.80
2018-08-20T05:52:40.336Z,81.22
2018-08-20T05:53:45.738Z,81.90
2018-08-20T05:54:52.310Z,81.51
2018-08-20T05:55:56.767Z,81.41
2018-08-20T05:57:03.287Z,81.80
2018-08-20T05:58:07.805Z,81.70
2018-08-20T05:59:13.380Z,81.32
2018-08-20T06:00:19.848Z,81.60
2018-08-20T06:01:24.359Z,82.09
2018-08-20T06:02:30.899Z,81.80
2018-08-20T06:03:35.396Z,81.80
2018-08-20T06:04:40.894Z,81.60
2018-08-20T06:05:47.451Z,81.60
2018-08-20T06:06:51.976Z,81.51
2018-08-20T06:07:58.519Z,81.22
2018-08-20T06:09:03.029Z,81.51
2018-08-20T06:10:08.503Z,81.60
2018-08-20T06:11:15.043Z,81.22
2018-08-20T06:12:20.171Z,81.32
2018-08-20T06:13:26.097Z,81.41
2018-08-20T06:14:30.590Z,81.32
2018-08-20T06:15:36.081Z,81.22
2018-08-20T06:16:42.635Z,81.51
2018-08-20T06:17:47.161Z,81.12
2018-08-20T06:18:53.665Z,81.12
2018-08-20T06:19:58.174Z,81.32
2018-08-20T06:21:03.681Z,81.60
2018-08-20T06:22:10.214Z,81.32
2018-08-20T06:23:14.707Z,81.22
2018-08-20T06:24:21.255Z,81.60
2018-08-20T06:25:25.785Z,80.83
2018-08-20T06:26:31.280Z,81.41
2018-08-20T06:27:37.809Z,81.80
2018-08-20T06:28:42.368Z,81.45
2018-08-20T06:29:48.825Z,81.32
2018-08-20T06:30:53.349Z,82.09
2018-08-20T06:31:58.873Z,81.80
2018-08-20T06:33:05.387Z,82.76
2018-08-20T06:34:09.895Z,82.96
2018-08-20T06:35:16.460Z,83.15
2018-08-20T06:36:20.936Z,83.53
2018-08-20T06:37:26.444Z,83.63
2018-08-20T06:38:32.991Z,83.73
2018-08-20T06:39:37.503Z,83.53
2018-08-20T06:40:44.021Z,84.01
2018-08-20T06:41:50.654Z,84.01
2018-08-20T06:42:54.019Z,83.92
2018-08-20T06:44:00.577Z,84.59
2018-08-20T06:45:05.064Z,84.98
2018-08-20T06:46:11.645Z,84.69
2018-08-20T06:47:16.128Z,84.69
2018-08-20T06:48:21.632Z,85.23
2018-08-20T06:49:28.176Z,85.08
2018-08-20T06:50:32.680Z,85.91
2018-08-20T06:51:39.199Z,85.94
2018-08-20T06:52:43.706Z,86.00
2018-08-20T06:53:49.228Z,86.10
2018-08-20T06:54:55.739Z,86.87
2018-08-20T06:56:00.236Z,86.77
2018-08-20T06:57:06.786Z,86.87
2018-08-20T06:58:11.282Z,87.06
2018-08-20T06:59:16.810Z,87.45
2018-08-20T07:00:23.339Z,87.93
2018-08-20T07:01:27.836Z,87.54
2018-08-20T07:02:34.379Z,88.08
2018-08-20T07:03:38.899Z,87.70
2018-08-20T07:04:44.396Z,88.27
2018-08-20T07:05:50.936Z,87.50
2018-08-20T07:06:55.431Z,88.27
2018-08-20T07:08:01.974Z,88.22
2018-08-20T07:09:06.483Z,88.56
2018-08-20T07:10:11.982Z,88.70
2018-08-20T07:11:18.564Z,88.41
2018-08-20T07:12:23.036Z,88.60
2018-08-20T07:13:29.557Z,89.67
2018-08-20T07:14:34.051Z,89.76
2018-08-20T07:15:39.569Z,89.47
2018-08-20T07:16:46.095Z,89.28
2018-08-20T07:17:50.610Z,89.23
2018-08-20T07:18:57.130Z,89.62
2018-08-20T07:20:01.637Z,90.24
2018-08-20T07:21:07.159Z,90.05
2018-08-20T07:22:13.693Z,89.91
2018-08-20T07:23:18.211Z,90.53
2018-08-20T07:24:24.719Z,90.00
2018-08-20T07:25:29.214Z,90.68
2018-08-20T07:26:34.755Z,90.30
2018-08-20T07:27:41.285Z,91.06
2018-08-20T07:28:45.776Z,90.48
2018-08-20T07:29:52.306Z,90.68
2018-08-20T07:30:56.825Z,91.16
2018-08-20T07:32:02.343Z,90.58
2018-08-20T07:33:08.890Z,90.78
2018-08-20T07:34:13.368Z,90.78
2018-08-20T07:35:19.897Z,91.06
2018-08-20T07:36:24.391Z,91.64
2018-08-20T07:37:29.903Z,91.83
2018-08-20T07:38:36.464Z,91.36
2018-08-20T07:39:40.957Z,91.06
2018-08-20T07:40:47.493Z,90.78
2018-08-20T07:41:51.991Z,91.45
2018-08-20T07:42:57.518Z,91.64
2018-08-20T07:44:04.065Z,91.74
2018-08-20T07:45:08.559Z,91.74
2018-08-20T07:46:15.094Z,91.88
2018-08-20T07:47:19.588Z,92.36
2018-08-20T07:48:25.077Z,91.55
2018-08-20T07:49:31.614Z,91.88
2018-08-20T07:50:36.135Z,91.88
2018-08-20T07:51:42.678Z,92.27
2018-08-20T07:52:47.171Z,92.17
2018-08-20T07:53:52.677Z,92.08
2018-08-20T07:54:59.208Z,92.56
2018-08-20T07:56:03.741Z,92.65
2018-08-20T07:57:10.249Z,91.98
2018-08-20T07:58:14.763Z,92.65
2018-08-20T07:59:20.261Z,92.36
2018-08-20T08:00:26.820Z,92.85
2018-08-20T08:01:31.321Z,92.65
2018-08-20T08:02:37.832Z,92.70
2018-08-20T08:03:42.351Z,92.60
2018-08-20T08:04:47.854Z,92.08
2018-08-20T08:05:54.396Z,91.64
2018-08-20T08:06:58.920Z,92.60
2018-08-20T08:08:05.432Z,91.54
2018-08-20T08:09:09.929Z,91.40
2018-08-20T08:10:15.452Z,91.69
2018-08-20T08:11:21.981Z,91.02
2018-08-20T08:12:26.474Z,90.77
2018-08-20T08:13:33.026Z,90.53
2018-08-20T08:14:37.532Z,89.76
2018-08-20T08:15:43.057Z,90.53
2018-08-20T08:16:49.564Z,91.11
2018-08-20T08:17:54.073Z,91.40
2018-08-20T08:19:00.618Z,91.88
2018-08-20T08:20:05.115Z,91.78
2018-08-20T08:21:10.622Z,92.08
2018-08-20T08:22:17.152Z,91.78
2018-08-20T08:23:21.659Z,91.69
2018-08-20T08:24:28.175Z,91.69
2018-08-20T08:25:32.697Z,91.60
2018-08-20T08:26:38.237Z,91.83
2018-08-20T08:27:44.755Z,91.64
2018-08-20T08:28:49.245Z,92.02
2018-08-20T08:29:55.774Z,91.78
2018-08-20T08:31:00.273Z,91.54
2018-08-20T08:32:05.803Z,90.87
2018-08-20T08:33:12.321Z,90.96
2018-08-20T08:34:16.858Z,90.96
2018-08-20T08:35:23.372Z,91.16
2018-08-20T08:36:27.872Z,91.25
2018-08-20T08:37:33.420Z,91.50
2018-08-20T08:38:39.909Z,92.36
2018-08-20T08:39:44.431Z,91.44
2018-08-20T08:40:50.962Z,91.30
2018-08-20T08:41:55.494Z,91.64
2018-08-20T08:43:00.996Z,91.74
2018-08-20T08:44:07.514Z,91.64
2018-08-20T08:45:11.999Z,90.77
2018-08-20T08:46:18.531Z,91.16
2018-08-20T08:47:23.070Z,90.96
2018-08-20T08:48:28.557Z,91.64
2018-08-20T08:49:35.093Z,90.96
2018-08-20T08:50:39.580Z,90.96
2018-08-20T08:51:46.128Z,91.64
2018-08-20T08:52:50.631Z,91.44
2018-08-20T08:53:56.152Z,91.83
2018-08-20T08:55:02.666Z,91.64
2018-08-20T08:56:07.161Z,91.54
2018-08-20T08:57:13.730Z,91.25
2018-08-20T08:58:18.224Z,91.93
2018-08-20T08:59:23.752Z,91.64
2018-08-20T09:00:30.304Z,91.64
2018-08-20T09:01:34.769Z,91.54
2018-08-20T09:02:41.289Z,91.25
2018-08-20T09:03:45.822Z,91.74
2018-08-20T09:04:51.363Z,92.02
2018-08-20T09:05:57.857Z,91.16
2018-08-20T09:07:02.363Z,91.74
2018-08-20T09:08:08.898Z,91.54
2018-08-20T09:09:13.383Z,91.44
2018-08-20T09:10:18.917Z,91.64
2018-08-20T09:11:25.452Z,91.44
2018-08-20T09:12:29.981Z,91.25
2018-08-20T09:13:36.508Z,91.83
2018-08-20T09:14:40.977Z,91.64
2018-08-20T09:15:46.536Z,91.64
2018-08-20T09:16:53.047Z,91.44
2018-08-20T09:17:57.556Z,91.64
2018-08-20T09:19:04.077Z,91.54
2018-08-20T09:20:08.566Z,91.78
2018-08-20T09:21:14.095Z,91.93
2018-08-20T09:22:20.625Z,91.97
2018-08-20T09:23:25.105Z,90.96
2018-08-20T09:24:31.657Z,91.11
2018-08-20T09:25:36.164Z,91.01
2018-08-20T09:26:41.681Z,91.11
2018-08-20T09:27:48.216Z,90.91
2018-08-20T09:28:52.727Z,90.91
2018-08-20T09:29:59.241Z,91.68
2018-08-20T09:31:03.726Z,91.01
2018-08-20T09:32:09.316Z,91.11
2018-08-20T09:33:15.786Z,91.59
2018-08-20T09:34:20.340Z,91.01
2018-08-20T09:35:26.844Z,91.59
2018-08-20T09:36:31.365Z,91.01
2018-08-20T09:37:36.872Z,91.20
2018-08-20T09:38:43.390Z,90.62
2018-08-20T09:39:47.914Z,89.65
2018-08-20T09:40:54.417Z,90.43
2018-08-20T09:41:58.944Z,90.23
2018-08-20T09:43:04.466Z,90.14
2018-08-20T09:44:10.970Z,90.62
2018-08-20T09:45:15.462Z,90.81
2018-08-20T09:46:22.016Z,91.39
2018-08-20T09:47:26.500Z,91.11
2018-08-20T09:48:32.043Z,91.01
2018-08-20T09:49:38.565Z,91.78
2018-08-20T09:50:43.062Z,91.78
2018-08-20T09:51:49.622Z,90.62
2018-08-20T09:52:54.107Z,90.33
2018-08-20T09:53:59.644Z,90.72
2018-08-20T09:55:06.139Z,91.01
2018-08-20T09:56:10.658Z,90.23
2018-08-20T09:57:17.184Z,90.14
2018-08-20T09:58:21.702Z,90.91
2018-08-20T09:59:27.215Z,90.05
2018-08-20T10:00:33.754Z,90.33
2018-08-20T10:01:38.238Z,90.09
2018-08-20T10:02:44.773Z,90.05
2018-08-20T10:03:49.277Z,90.23
2018-08-20T10:04:54.822Z,89.99
2018-08-20T10:06:01.317Z,90.05
2018-08-20T10:07:05.826Z,89.41
2018-08-20T10:08:12.355Z,89.99
2018-08-20T10:09:16.878Z,90.28
2018-08-20T10:10:22.404Z,89.51
2018-08-20T10:11:28.945Z,89.03
2018-08-20T10:12:33.440Z,89.03
2018-08-20T10:13:39.956Z,89.31
2018-08-20T10:14:44.497Z,89.22
2018-08-20T10:15:49.987Z,89.12
2018-08-20T10:16:56.486Z,88.54
2018-08-20T10:18:01.002Z,89.31
2018-08-20T10:19:07.558Z,89.41
2018-08-20T10:20:12.060Z,90.09
2018-08-20T10:21:17.594Z,90.13
2018-08-20T10:22:24.092Z,89.07
2018-08-20T10:23:28.611Z,88.68
2018-08-20T10:24:35.155Z,88.97
2018-08-20T10:25:39.633Z,87.91
2018-08-20T10:26:45.178Z,88.10
2018-08-20T10:27:51.720Z,88.20
2018-08-20T10:28:56.206Z,88.20
2018-08-20T10:30:02.723Z,87.71
2018-08-20T10:31:07.216Z,87.52
2018-08-20T10:32:12.815Z,87.57
2018-08-20T10:33:19.273Z,87.27
2018-08-20T10:34:23.781Z,87.08
2018-08-20T10:35:30.328Z,86.02
2018-08-20T10:36:34.840Z,86.02
2018-08-20T10:37:40.357Z,85.83
2018-08-20T10:38:46.897Z,85.05
2018-08-20T10:39:51.380Z,84.86
2018-08-20T10:40:57.932Z,85.73
2018-08-20T10:42:02.412Z,85.63
2018-08-20T10:43:07.953Z,84.77
2018-08-20T10:44:17.318Z,85.25
2018-08-20T10:45:19.016Z,85.63
2018-08-20T10:46:25.523Z,85.05
2018-08-20T10:47:30.026Z,85.25
2018-08-20T10:48:35.548Z,85.53
2018-08-20T10:49:42.047Z,85.35
2018-08-20T10:50:46.565Z,85.93
2018-08-20T10:51:53.117Z,85.68
2018-08-20T10:52:57.606Z,86.21
2018-08-20T10:54:03.134Z,86.16
2018-08-20T10:55:09.662Z,86.06
2018-08-20T10:56:14.169Z,85.48
2018-08-20T10:57:20.672Z,84.52
2018-08-20T10:58:25.207Z,85.10
2018-08-20T10:59:30.706Z,84.94
2018-08-20T11:00:37.242Z,83.59
2018-08-20T11:01:41.746Z,84.17
2018-08-20T11:02:48.273Z,84.56
2018-08-20T11:03:52.792Z,83.59
2018-08-20T11:04:58.333Z,83.78
2018-08-20T11:06:04.872Z,82.28
2018-08-20T11:07:09.390Z,82.18
2018-08-20T11:08:15.916Z,82.08
2018-08-20T11:09:20.408Z,81.70
2018-08-20T11:10:25.910Z,81.02
2018-08-20T11:11:32.403Z,80.87
2018-08-20T11:12:36.940Z,81.15
2018-08-20T11:13:43.491Z,81.15
2018-08-20T11:14:48.005Z,80.57
2018-08-20T11:15:53.517Z,81.05
2018-08-20T11:17:00.037Z,81.64
2018-08-20T11:18:04.552Z,81.05
2018-08-20T11:19:11.074Z,81.45
2018-08-20T11:20:15.582Z,81.15
2018-08-20T11:21:21.092Z,78.87
2018-08-20T11:22:27.641Z,79.35
2018-08-20T11:23:32.119Z,79.35
2018-08-20T11:24:38.661Z,79.35
2018-08-20T11:25:43.190Z,78.67
2018-08-20T11:26:48.717Z,79.25
2018-08-20T11:27:56.611Z,79.25
2018-08-20T11:28:59.728Z,79.45
2018-08-20T11:30:06.328Z,77.80
2018-08-20T11:31:10.795Z,78.19
2018-08-20T11:32:16.301Z,78.48
2018-08-20T11:33:22.818Z,77.90
2018-08-20T11:34:27.344Z,78.42
2018-08-20T11:35:33.867Z,77.42
2018-08-20T11:36:38.365Z,77.32
2018-08-20T11:37:43.925Z,76.74
2018-08-20T11:38:50.411Z,76.35
2018-08-20T11:39:54.940Z,76.29
2018-08-20T11:41:01.467Z,75.81
2018-08-20T11:42:05.950Z,76.45
2018-08-20T11:43:11.524Z,76.58
2018-08-20T11:44:18.004Z,77.26
2018-08-20T11:45:22.506Z,76.64
2018-08-20T11:46:29.069Z,76.48
2018-08-20T11:47:33.560Z,77.42
2018-08-20T11:48:39.075Z,77.61
2018-08-20T11:49:45.617Z,77.42
2018-08-20T11:50:50.131Z,75.90
2018-08-20T11:51:56.650Z,75.96
2018-08-20T11:53:01.170Z,76.15
2018-08-20T11:54:06.688Z,76.74
2018-08-20T11:55:13.184Z,76.45
2018-08-20T11:56:17.724Z,76.54
2018-08-20T11:57:24.247Z,76.83
2018-08-20T11:58:28.751Z,76.45
2018-08-20T11:59:34.426Z,77.32
2018-08-20T12:00:40.790Z,76.45
2018-08-20T12:01:45.388Z,76.83
2018-08-20T12:02:51.871Z,76.64
2018-08-20T12:03:56.370Z,75.87
2018-08-20T12:05:01.875Z,76.64
2018-08-20T12:06:08.421Z,77.32
2018-08-20T12:07:12.946Z,77.70
2018-08-20T12:08:19.434Z,78.00
2018-08-20T12:09:23.958Z,77.32
2018-08-20T12:10:29.463Z,77.22
2018-08-20T12:11:35.997Z,77.42
2018-08-20T12:12:40.533Z,77.61
2018-08-20T12:13:47.032Z,77.61
2018-08-20T12:14:51.547Z,76.74
2018-08-20T12:15:57.080Z,76.35
2018-08-20T12:17:03.638Z,77.12
2018-08-20T12:18:08.152Z,76.54
2018-08-20T12:19:14.651Z,76.25
2018-08-20T12:20:19.131Z,76.79
2018-08-20T12:21:24.664Z,76.25
2018-08-20T12:22:31.300Z,76.31
2018-08-20T12:23:35.723Z,76.99
2018-08-20T12:24:42.232Z,76.99
2018-08-20T12:25:47.736Z,76.41
2018-08-20T12:26:52.251Z,76.02
2018-08-20T12:27:58.785Z,76.31
2018-08-20T12:29:03.293Z,77.47
2018-08-20T12:30:09.846Z,76.70
2018-08-20T12:31:14.358Z,76.70
2018-08-20T12:32:19.886Z,77.28
2018-08-20T12:33:26.396Z,76.41
2018-08-20T12:34:30.890Z,76.89
2018-08-20T12:35:37.414Z,77.37
2018-08-20T12:36:41.913Z,77.44
2018-08-20T12:37:47.476Z,76.95
2018-08-20T12:38:53.978Z,77.73
2018-08-20T12:39:58.588Z,77.53
2018-08-20T12:41:05.011Z,78.31
2018-08-20T12:42:09.523Z,78.11
2018-08-20T12:43:15.064Z,78.41
2018-08-20T12:44:21.568Z,77.73
2018-08-20T12:45:26.100Z,77.34
2018-08-20T12:46:32.610Z,77.20
2018-08-20T12:47:37.153Z,77.73
2018-08-20T13:24:35.921Z,88.10
2018-08-20T13:25:41.430Z,88.87
2018-08-20T13:27:39.952Z,88.97
2018-08-20T13:28:45.451Z,88.39
2018-08-20T13:30:44.073Z,88.68
2018-08-20T13:31:49.465Z,88.97
2018-08-20T13:33:47.989Z,88.01
2018-08-20T13:34:53.489Z,88.68
2018-08-20T13:36:51.999Z,88.59
2018-08-20T13:37:57.506Z,88.78
2018-08-20T13:39:56.024Z,88.68
2018-08-20T13:41:01.529Z,88.59
2018-08-20T13:43:00.043Z,88.49
2018-08-20T13:44:05.638Z,87.23
2018-08-20T13:45:11.063Z,85.59
2018-08-20T13:46:16.584Z,87.04
2018-08-20T13:47:22.100Z,87.23
2018-08-20T13:48:27.614Z,87.95
2018-08-20T13:49:33.130Z,88.63
2018-08-20T13:50:38.640Z,88.15
2018-08-20T13:51:44.166Z,89.01
2018-08-20T13:52:49.686Z,89.50
2018-08-20T13:53:55.199Z,85.83
2018-08-20T13:55:00.720Z,85.83
2018-08-20T13:56:06.241Z,86.21
2018-08-20T13:57:11.752Z,87.18
2018-08-20T13:58:17.269Z,86.21
2018-08-20T13:59:22.807Z,87.08
2018-08-20T14:00:28.305Z,88.15
2018-08-20T14:01:33.823Z,87.95
2018-08-20T14:02:39.341Z,87.71
2018-08-20T14:03:44.864Z,87.32
2018-08-20T14:04:50.382Z,86.65
2018-08-20T14:05:55.893Z,87.41
2018-08-20T14:07:01.411Z,87.23
2018-08-20T14:08:06.935Z,85.58
2018-08-20T14:09:12.449Z,85.29
2018-08-20T14:10:17.965Z,87.13
2018-08-20T14:11:23.483Z,86.93
2018-08-20T14:12:29.006Z,87.81
2018-08-20T14:13:34.515Z,87.46
2018-08-20T14:14:40.043Z,87.51
2018-08-20T14:15:45.736Z,86.88
2018-08-20T14:16:51.076Z,87.17
2018-08-20T14:17:56.600Z,87.36
2018-08-20T14:19:02.108Z,86.49
2018-08-20T14:20:07.636Z,86.59
2018-08-20T14:21:13.148Z,84.66
2018-08-20T14:22:18.669Z,84.36
2018-08-20T14:23:24.180Z,84.27
2018-08-20T14:24:29.713Z,84.66
2018-08-20T14:25:35.231Z,84.11
2018-08-20T14:26:40.738Z,84.94
2018-08-20T14:27:46.256Z,85.62
2018-08-20T14:28:51.784Z,85.33
2018-08-20T14:29:57.297Z,85.33
2018-08-20T14:31:02.823Z,84.84
2018-08-20T14:32:08.336Z,84.17
2018-08-20T14:33:13.856Z,84.08
2018-08-20T14:34:19.374Z,83.78
2018-08-20T14:35:24.892Z,83.88
2018-08-20T14:36:30.491Z,84.17
2018-08-20T14:37:35.927Z,84.66
2018-08-20T14:38:41.467Z,84.94
2018-08-20T14:39:46.971Z,85.14
2018-08-20T14:40:52.492Z,84.36
2018-08-20T14:41:58.006Z,84.46
2018-08-20T14:43:03.536Z,84.36
2018-08-20T14:44:09.054Z,84.66
2018-08-20T14:45:14.564Z,85.14